Urb Romany Gdns, Puerto Rico
Current Conditions -  °F | °C
As of 7:56 AM on Sunday 23 Nov 2014 (Local Time) from TJSJ Reporting Station
Broken Clouds Broken Clouds  
Wind Chill: 78°   Ceiling: 5000
Heat Index: 81°   Visibility: 10mi
Dew Point: 74°   Wind: 8mph
Humidity: 87%   Direction: 90°E
Pressure: 30.01"   Gusts: NA
Location:  18.3754°N, 66.0577°W
Report Text: TJSJ 231156Z 09007KT 10SM FEW027 SCT038 BKN050 26/23 A3001 RMK AO2 RAB44E55 SLP162 P0002 60004 70075 T02560233 10256 20239 53015 $
Loading
Personal Weather Stations






























Interactive Weather Map New forecast layout! Learn more

10-Day Weather Forecast

Advertisements
Track Severe Weather on mobile